Dallas/Ft Worth, TX

5:29 PM CST on December 02, 2016 (GMT -0600)
Broadmoor Hills | | Change Station

Elev 0 ft 32.88 °N, 97.00 °W | Updated 7 minutes ago

Overcast
Overcast
62.4 °F
Feels Like 62.4 °F
N
1.2
Wind Variable Wind from NE
Gusts 4.3 mph

Today
High -- | Low -- °F
--% Chance of Precip.
Yesterday
High -- | Low -- °F
Precip. -- in
Pressure 30.08 in
Visibility 10.0 miles
Clouds Scattered Clouds 8500 ft
Scattered Clouds 14000 ft
Mostly Cloudy 19000 ft
Overcast 25000 ft
Dew Point 39 °F
Humidity 42%
Rainfall 0.00 in
Snow Depth Not available.
7:14 AM 5:21 PM
Waxing Crescent, 11% visible
METAR KDFW 022253Z 10009KT 10SM SCT085 SCT140 BKN190 OVC250 17/01 A3008 RMK AO2 SLP184 T01720011
Pressure 30.08 in
Visibility 10.0 miles
Clouds Scattered Clouds 8500 ft
Scattered Clouds 14000 ft
Mostly Cloudy 19000 ft
Overcast 25000 ft
Dew Point 39 °F
Humidity 42%
Rainfall 0.00 in
Snow Depth Not available.
7:14 AM 5:21 PM
Waxing Crescent, 11% visible
METAR KDFW 022253Z 10009KT 10SM SCT085 SCT140 BKN190 OVC250 17/01 A3008 RMK AO2 SLP184 T01720011

10-Day Weather Forecast

Almanac

Astronomy

Dec. 02, 2016 Rise Set
Actual Time
Civil Twilight
Nautical Twilight
Astronomical Twilight
Moon
Length of Visible Light
Length of Day
Tomorrow will be .
, % of the Moon is Illuminated

Today's Extremes

State Highs State Lows

Community

WunderPhotos

Upload Photos

1,955,378 photos uploaded!

WunderBlog® & News

Nearby

Air Quality

  Air Quality AQ Index Pollutant
Not available.

Snow Depth

Station Depth Elevation

Earthquake Activity

City Distance Mag. Time & Date
Minimum magnitude displayed is 2.5.

Coastal Water Temperatures

Place Temperature

Stations

Nearby Weather Stations

Station Location Temp. Windchill Dew Point Humidity Wind Precip. Elev Updated Type
                   

Watches & Warnings

There are currently no watches in effect.